sensor_id;sensor_type;location;lat;lon;timestamp;P1;durP1;ratioP1;P2;durP2;ratioP2
36799;SDS011;22752;51.960;5.886;2024-02-28T00:00:29;87.30;;;32.90;;
36799;SDS011;22752;51.960;5.886;2024-02-28T00:02:55;144.70;;;33.37;;
36799;SDS011;22752;51.960;5.886;2024-02-28T00:05:20;108.80;;;34.53;;
36799;SDS011;22752;51.960;5.886;2024-02-28T00:07:46;189.40;;;36.70;;
36799;SDS011;22752;51.960;5.886;2024-02-28T00:10:12;70.97;;;34.77;;
36799;SDS011;22752;51.960;5.886;2024-02-28T00:12:38;136.77;;;34.20;;
36799;SDS011;22752;51.960;5.886;2024-02-28T00:15:05;133.83;;;33.13;;
36799;SDS011;22752;51.960;5.886;2024-02-28T00:17:35;91.17;;;31.00;;
36799;SDS011;22752;51.960;5.886;2024-02-28T00:20:07;83.13;;;32.57;;
36799;SDS011;22752;51.960;5.886;2024-02-28T00:22:37;56.73;;;28.80;;
36799;SDS011;22752;51.960;5.886;2024-02-28T00:25:03;82.57;;;29.17;;
36799;SDS011;22752;51.960;5.886;2024-02-28T00:27:31;75.00;;;31.13;;
36799;SDS011;22752;51.960;5.886;2024-02-28T00:29:57;82.60;;;30.37;;
36799;SDS011;22752;51.960;5.886;2024-02-28T00:32:23;119.30;;;30.50;;
36799;SDS011;22752;51.960;5.886;2024-02-28T00:34:48;62.27;;;28.33;;
36799;SDS011;22752;51.960;5.886;2024-02-28T00:37:14;81.23;;;27.80;;
36799;SDS011;22752;51.960;5.886;2024-02-28T00:39:40;109.10;;;29.10;;
36799;SDS011;22752;51.960;5.886;2024-02-28T00:42:05;113.07;;;28.03;;
36799;SDS011;22752;51.960;5.886;2024-02-28T00:44:31;125.73;;;29.23;;
36799;SDS011;22752;51.960;5.886;2024-02-28T00:46:57;95.53;;;29.47;;
36799;SDS011;22752;51.960;5.886;2024-02-28T00:49:23;91.60;;;32.33;;
36799;SDS011;22752;51.960;5.886;2024-02-28T00:51:48;213.67;;;34.23;;
36799;SDS011;22752;51.960;5.886;2024-02-28T00:54:14;105.67;;;30.53;;
36799;SDS011;22752;51.960;5.886;2024-02-28T00:56:40;76.17;;;30.20;;
36799;SDS011;22752;51.960;5.886;2024-02-28T00:59:05;69.87;;;30.43;;
36799;SDS011;22752;51.960;5.886;2024-02-28T01:01:31;72.27;;;30.30;;
36799;SDS011;22752;51.960;5.886;2024-02-28T01:03:57;78.90;;;29.63;;
36799;SDS011;22752;51.960;5.886;2024-02-28T01:06:23;97.50;;;29.63;;
36799;SDS011;22752;51.960;5.886;2024-02-28T01:08:48;72.60;;;30.87;;
36799;SDS011;22752;51.960;5.886;2024-02-28T01:11:15;93.33;;;32.83;;
36799;SDS011;22752;51.960;5.886;2024-02-28T01:13:41;88.90;;;35.73;;
36799;SDS011;22752;51.960;5.886;2024-02-28T01:16:06;73.33;;;31.37;;
36799;SDS011;22752;51.960;5.886;2024-02-28T01:18:32;71.93;;;32.77;;
36799;SDS011;22752;51.960;5.886;2024-02-28T01:20:58;73.47;;;33.63;;
36799;SDS011;22752;51.960;5.886;2024-02-28T01:23:23;70.97;;;33.23;;
36799;SDS011;22752;51.960;5.886;2024-02-28T01:25:49;71.77;;;34.53;;
36799;SDS011;22752;51.960;5.886;2024-02-28T01:28:15;63.77;;;32.73;;
36799;SDS011;22752;51.960;5.886;2024-02-28T01:30:40;62.80;;;31.83;;
36799;SDS011;22752;51.960;5.886;2024-02-28T01:33:06;66.70;;;31.93;;
36799;SDS011;22752;51.960;5.886;2024-02-28T01:35:31;72.07;;;34.97;;
36799;SDS011;22752;51.960;5.886;2024-02-28T01:37:57;58.53;;;29.50;;
36799;SDS011;22752;51.960;5.886;2024-02-28T01:40:23;61.40;;;30.63;;
36799;SDS011;22752;51.960;5.886;2024-02-28T01:42:48;62.07;;;30.90;;
36799;SDS011;22752;51.960;5.886;2024-02-28T01:45:14;63.97;;;29.90;;
36799;SDS011;22752;51.960;5.886;2024-02-28T01:47:43;57.07;;;31.00;;
36799;SDS011;22752;51.960;5.886;2024-02-28T01:50:09;72.43;;;33.50;;
36799;SDS011;22752;51.960;5.886;2024-02-28T01:52:36;68.47;;;31.73;;
36799;SDS011;22752;51.960;5.886;2024-02-28T01:55:05;88.47;;;34.60;;
36799;SDS011;22752;51.960;5.886;2024-02-28T01:57:32;78.27;;;35.17;;
36799;SDS011;22752;51.960;5.886;2024-02-28T01:59:58;66.57;;;33.57;;
36799;SDS011;22752;51.960;5.886;2024-02-28T02:02:24;74.07;;;34.37;;
36799;SDS011;22752;51.960;5.886;2024-02-28T02:04:50;70.97;;;34.27;;
36799;SDS011;22752;51.960;5.886;2024-02-28T02:07:18;82.43;;;34.23;;
36799;SDS011;22752;51.960;5.886;2024-02-28T02:09:44;98.43;;;34.47;;
36799;SDS011;22752;51.960;5.886;2024-02-28T02:12:11;88.63;;;36.37;;
36799;SDS011;22752;51.960;5.886;2024-02-28T02:14:37;81.40;;;34.23;;
36799;SDS011;22752;51.960;5.886;2024-02-28T02:17:03;90.67;;;33.50;;
36799;SDS011;22752;51.960;5.886;2024-02-28T02:19:28;161.27;;;35.40;;
36799;SDS011;22752;51.960;5.886;2024-02-28T02:21:56;119.73;;;35.47;;
36799;SDS011;22752;51.960;5.886;2024-02-28T02:24:23;108.73;;;35.17;;
36799;SDS011;22752;51.960;5.886;2024-02-28T02:26:49;100.13;;;33.50;;
36799;SDS011;22752;51.960;5.886;2024-02-28T02:29:19;72.63;;;31.87;;
36799;SDS011;22752;51.960;5.886;2024-02-28T02:31:45;73.20;;;32.27;;
36799;SDS011;22752;51.960;5.886;2024-02-28T02:34:10;113.13;;;31.73;;
36799;SDS011;22752;51.960;5.886;2024-02-28T02:36:36;70.17;;;31.23;;
36799;SDS011;22752;51.960;5.886;2024-02-28T02:39:01;88.50;;;32.27;;
36799;SDS011;22752;51.960;5.886;2024-02-28T02:41:27;103.30;;;32.37;;
36799;SDS011;22752;51.960;5.886;2024-02-28T02:43:53;106.50;;;31.17;;
36799;SDS011;22752;51.960;5.886;2024-02-28T02:46:18;108.17;;;33.67;;
36799;SDS011;22752;51.960;5.886;2024-02-28T02:48:44;127.00;;;34.80;;
36799;SDS011;22752;51.960;5.886;2024-02-28T02:51:10;97.77;;;34.10;;
36799;SDS011;22752;51.960;5.886;2024-02-28T02:53:35;160.40;;;32.63;;
36799;SDS011;22752;51.960;5.886;2024-02-28T02:56:03;60.90;;;29.40;;
36799;SDS011;22752;51.960;5.886;2024-02-28T02:58:29;62.43;;;30.70;;
36799;SDS011;22752;51.960;5.886;2024-02-28T03:00:55;71.07;;;31.20;;
36799;SDS011;22752;51.960;5.886;2024-02-28T03:03:20;71.73;;;31.93;;
36799;SDS011;22752;51.960;5.886;2024-02-28T03:05:46;78.13;;;32.00;;
36799;SDS011;22752;51.960;5.886;2024-02-28T03:08:12;110.60;;;32.20;;
36799;SDS011;22752;51.960;5.886;2024-02-28T03:10:40;65.80;;;28.27;;
36799;SDS011;22752;51.960;5.886;2024-02-28T03:13:06;115.40;;;30.57;;
36799;SDS011;22752;51.960;5.886;2024-02-28T03:15:32;66.70;;;29.47;;
36799;SDS011;22752;51.960;5.886;2024-02-28T03:17:59;65.60;;;28.50;;
36799;SDS011;22752;51.960;5.886;2024-02-28T03:20:24;126.30;;;29.23;;
36799;SDS011;22752;51.960;5.886;2024-02-28T03:22:51;96.33;;;32.93;;
36799;SDS011;22752;51.960;5.886;2024-02-28T03:25:16;89.30;;;30.67;;
36799;SDS011;22752;51.960;5.886;2024-02-28T03:27:42;73.33;;;30.83;;
36799;SDS011;22752;51.960;5.886;2024-02-28T03:30:08;83.53;;;31.93;;
36799;SDS011;22752;51.960;5.886;2024-02-28T03:32:33;85.43;;;32.30;;
36799;SDS011;22752;51.960;5.886;2024-02-28T03:34:59;75.27;;;31.87;;
36799;SDS011;22752;51.960;5.886;2024-02-28T03:37:25;73.77;;;31.10;;
36799;SDS011;22752;51.960;5.886;2024-02-28T03:39:51;114.53;;;33.20;;
36799;SDS011;22752;51.960;5.886;2024-02-28T03:42:16;77.10;;;32.00;;
36799;SDS011;22752;51.960;5.886;2024-02-28T03:44:42;81.07;;;31.63;;
36799;SDS011;22752;51.960;5.886;2024-02-28T03:47:08;73.37;;;31.23;;
36799;SDS011;22752;51.960;5.886;2024-02-28T03:49:34;77.30;;;32.93;;
36799;SDS011;22752;51.960;5.886;2024-02-28T03:51:59;79.67;;;31.83;;
36799;SDS011;22752;51.960;5.886;2024-02-28T03:54:26;81.80;;;31.07;;
36799;SDS011;22752;51.960;5.886;2024-02-28T03:56:55;84.53;;;32.47;;
36799;SDS011;22752;51.960;5.886;2024-02-28T03:59:20;78.00;;;32.43;;
36799;SDS011;22752;51.960;5.886;2024-02-28T04:01:46;58.67;;;29.70;;
36799;SDS011;22752;51.960;5.886;2024-02-28T04:04:12;53.50;;;30.00;;
36799;SDS011;22752;51.960;5.886;2024-02-28T04:06:37;91.70;;;29.03;;
36799;SDS011;22752;51.960;5.886;2024-02-28T04:09:03;83.07;;;28.63;;
36799;SDS011;22752;51.960;5.886;2024-02-28T04:11:29;102.73;;;29.93;;
36799;SDS011;22752;51.960;5.886;2024-02-28T04:13:55;56.97;;;27.23;;
36799;SDS011;22752;51.960;5.886;2024-02-28T04:16:20;50.67;;;27.20;;
36799;SDS011;22752;51.960;5.886;2024-02-28T04:18:46;60.30;;;27.53;;
36799;SDS011;22752;51.960;5.886;2024-02-28T04:21:11;67.87;;;28.57;;
36799;SDS011;22752;51.960;5.886;2024-02-28T04:23:37;84.27;;;29.20;;
36799;SDS011;22752;51.960;5.886;2024-02-28T04:26:03;108.80;;;28.57;;
36799;SDS011;22752;51.960;5.886;2024-02-28T04:28:29;68.23;;;29.80;;
36799;SDS011;22752;51.960;5.886;2024-02-28T04:30:55;70.20;;;30.37;;
36799;SDS011;22752;51.960;5.886;2024-02-28T04:33:20;57.30;;;28.60;;
36799;SDS011;22752;51.960;5.886;2024-02-28T04:35:47;67.17;;;30.20;;
36799;SDS011;22752;51.960;5.886;2024-02-28T04:38:13;69.37;;;31.20;;
36799;SDS011;22752;51.960;5.886;2024-02-28T04:40:39;56.97;;;29.10;;
36799;SDS011;22752;51.960;5.886;2024-02-28T04:43:05;71.43;;;30.30;;
36799;SDS011;22752;51.960;5.886;2024-02-28T04:45:30;72.13;;;30.87;;
36799;SDS011;22752;51.960;5.886;2024-02-28T04:47:56;62.70;;;31.13;;
36799;SDS011;22752;51.960;5.886;2024-02-28T04:50:22;54.80;;;29.63;;
36799;SDS011;22752;51.960;5.886;2024-02-28T04:52:48;65.40;;;31.00;;
36799;SDS011;22752;51.960;5.886;2024-02-28T04:55:14;60.10;;;30.73;;
36799;SDS011;22752;51.960;5.886;2024-02-28T04:57:40;61.77;;;31.87;;
36799;SDS011;22752;51.960;5.886;2024-02-28T05:00:05;69.00;;;32.60;;
36799;SDS011;22752;51.960;5.886;2024-02-28T05:02:33;56.90;;;29.13;;
36799;SDS011;22752;51.960;5.886;2024-02-28T05:04:59;54.13;;;29.47;;
36799;SDS011;22752;51.960;5.886;2024-02-28T05:07:24;56.10;;;29.03;;
36799;SDS011;22752;51.960;5.886;2024-02-28T05:09:50;57.27;;;30.17;;
36799;SDS011;22752;51.960;5.886;2024-02-28T05:12:16;64.37;;;29.53;;
36799;SDS011;22752;51.960;5.886;2024-02-28T05:14:41;51.63;;;26.53;;
36799;SDS011;22752;51.960;5.886;2024-02-28T05:17:07;60.07;;;29.00;;
36799;SDS011;22752;51.960;5.886;2024-02-28T05:19:33;59.30;;;29.57;;
36799;SDS011;22752;51.960;5.886;2024-02-28T05:21:58;54.07;;;29.80;;
36799;SDS011;22752;51.960;5.886;2024-02-28T05:24:26;57.73;;;32.13;;
36799;SDS011;22752;51.960;5.886;2024-02-28T05:26:51;57.87;;;32.10;;
36799;SDS011;22752;51.960;5.886;2024-02-28T05:29:20;55.03;;;30.70;;
36799;SDS011;22752;51.960;5.886;2024-02-28T05:31:45;50.80;;;28.53;;
36799;SDS011;22752;51.960;5.886;2024-02-28T05:34:11;45.23;;;27.97;;
36799;SDS011;22752;51.960;5.886;2024-02-28T05:36:37;46.17;;;27.30;;
36799;SDS011;22752;51.960;5.886;2024-02-28T05:39:03;47.43;;;28.30;;
36799;SDS011;22752;51.960;5.886;2024-02-28T05:41:30;46.57;;;28.03;;
36799;SDS011;22752;51.960;5.886;2024-02-28T05:43:56;48.30;;;29.13;;
36799;SDS011;22752;51.960;5.886;2024-02-28T05:46:22;45.70;;;27.77;;
36799;SDS011;22752;51.960;5.886;2024-02-28T05:48:47;49.73;;;28.73;;
36799;SDS011;22752;51.960;5.886;2024-02-28T05:51:13;51.93;;;28.33;;
36799;SDS011;22752;51.960;5.886;2024-02-28T05:53:39;47.33;;;30.67;;
36799;SDS011;22752;51.960;5.886;2024-02-28T05:56:06;44.60;;;28.90;;
36799;SDS011;22752;51.960;5.886;2024-02-28T05:58:39;44.03;;;28.20;;
36799;SDS011;22752;51.960;5.886;2024-02-28T06:01:12;42.33;;;27.58;;
36799;SDS011;22752;51.960;5.886;2024-02-28T06:03:41;44.43;;;28.73;;
36799;SDS011;22752;51.960;5.886;2024-02-28T06:06:07;42.13;;;27.67;;
36799;SDS011;22752;51.960;5.886;2024-02-28T06:08:33;37.23;;;24.83;;
36799;SDS011;22752;51.960;5.886;2024-02-28T06:10:59;44.80;;;26.30;;
36799;SDS011;22752;51.960;5.886;2024-02-28T06:13:26;37.30;;;25.47;;
36799;SDS011;22752;51.960;5.886;2024-02-28T06:15:53;84.10;;;27.87;;
36799;SDS011;22752;51.960;5.886;2024-02-28T06:18:19;53.07;;;26.03;;
36799;SDS011;22752;51.960;5.886;2024-02-28T06:20:47;40.00;;;25.30;;
36799;SDS011;22752;51.960;5.886;2024-02-28T06:23:13;51.50;;;24.27;;
36799;SDS011;22752;51.960;5.886;2024-02-28T06:25:39;83.07;;;28.43;;
36799;SDS011;22752;51.960;5.886;2024-02-28T06:28:04;37.37;;;24.53;;
36799;SDS011;22752;51.960;5.886;2024-02-28T06:30:32;61.00;;;24.83;;
36799;SDS011;22752;51.960;5.886;2024-02-28T06:33:01;40.50;;;24.50;;
36799;SDS011;22752;51.960;5.886;2024-02-28T06:35:27;72.40;;;26.63;;
36799;SDS011;22752;51.960;5.886;2024-02-28T06:37:52;41.53;;;25.67;;
36799;SDS011;22752;51.960;5.886;2024-02-28T06:40:19;49.30;;;25.80;;
36799;SDS011;22752;51.960;5.886;2024-02-28T06:42:45;35.80;;;25.03;;
36799;SDS011;22752;51.960;5.886;2024-02-28T06:45:11;40.20;;;25.13;;
36799;SDS011;22752;51.960;5.886;2024-02-28T06:47:37;39.43;;;25.07;;
36799;SDS011;22752;51.960;5.886;2024-02-28T06:50:03;37.17;;;24.37;;
36799;SDS011;22752;51.960;5.886;2024-02-28T06:52:29;39.67;;;26.93;;
36799;SDS011;22752;51.960;5.886;2024-02-28T06:54:55;41.10;;;26.00;;
36799;SDS011;22752;51.960;5.886;2024-02-28T06:57:21;43.83;;;26.87;;
36799;SDS011;22752;51.960;5.886;2024-02-28T06:59:46;43.53;;;27.90;;
36799;SDS011;22752;51.960;5.886;2024-02-28T07:02:13;40.87;;;25.97;;
36799;SDS011;22752;51.960;5.886;2024-02-28T07:04:43;41.17;;;27.30;;
36799;SDS011;22752;51.960;5.886;2024-02-28T07:07:10;43.40;;;27.53;;
36799;SDS011;22752;51.960;5.886;2024-02-28T07:09:37;41.23;;;28.10;;
36799;SDS011;22752;51.960;5.886;2024-02-28T07:12:03;42.60;;;28.00;;
36799;SDS011;22752;51.960;5.886;2024-02-28T07:14:29;46.47;;;30.47;;
36799;SDS011;22752;51.960;5.886;2024-02-28T07:16:55;47.30;;;28.73;;
36799;SDS011;22752;51.960;5.886;2024-02-28T07:19:21;43.03;;;28.43;;
36799;SDS011;22752;51.960;5.886;2024-02-28T07:21:46;39.93;;;28.33;;
36799;SDS011;22752;51.960;5.886;2024-02-28T07:24:12;48.20;;;30.30;;
36799;SDS011;22752;51.960;5.886;2024-02-28T07:26:38;38.07;;;26.33;;
36799;SDS011;22752;51.960;5.886;2024-02-28T07:29:05;38.13;;;26.33;;
36799;SDS011;22752;51.960;5.886;2024-02-28T07:31:31;43.27;;;29.40;;
36799;SDS011;22752;51.960;5.886;2024-02-28T07:33:56;42.87;;;29.80;;
36799;SDS011;22752;51.960;5.886;2024-02-28T07:36:22;40.50;;;28.63;;
36799;SDS011;22752;51.960;5.886;2024-02-28T07:38:48;42.67;;;29.07;;
36799;SDS011;22752;51.960;5.886;2024-02-28T07:41:13;39.33;;;27.30;;
36799;SDS011;22752;51.960;5.886;2024-02-28T07:43:42;44.97;;;28.33;;
36799;SDS011;22752;51.960;5.886;2024-02-28T07:46:09;44.53;;;30.87;;
36799;SDS011;22752;51.960;5.886;2024-02-28T07:48:36;40.47;;;27.60;;
36799;SDS011;22752;51.960;5.886;2024-02-28T07:51:04;41.80;;;29.33;;
36799;SDS011;22752;51.960;5.886;2024-02-28T07:53:30;46.40;;;31.00;;
36799;SDS011;22752;51.960;5.886;2024-02-28T07:55:55;45.43;;;31.53;;
36799;SDS011;22752;51.960;5.886;2024-02-28T07:58:21;47.27;;;31.03;;
36799;SDS011;22752;51.960;5.886;2024-02-28T08:00:47;48.57;;;32.53;;
36799;SDS011;22752;51.960;5.886;2024-02-28T08:03:12;44.70;;;30.43;;
36799;SDS011;22752;51.960;5.886;2024-02-28T08:05:38;50.27;;;30.73;;
36799;SDS011;22752;51.960;5.886;2024-02-28T08:08:07;52.00;;;32.73;;
36799;SDS011;22752;51.960;5.886;2024-02-28T08:10:33;52.37;;;33.53;;
36799;SDS011;22752;51.960;5.886;2024-02-28T08:13:00;53.63;;;32.40;;
36799;SDS011;22752;51.960;5.886;2024-02-28T08:15:26;58.43;;;33.50;;
36799;SDS011;22752;51.960;5.886;2024-02-28T08:17:52;63.27;;;36.57;;
36799;SDS011;22752;51.960;5.886;2024-02-28T08:20:18;61.13;;;36.00;;
36799;SDS011;22752;51.960;5.886;2024-02-28T08:22:44;64.70;;;35.17;;
36799;SDS011;22752;51.960;5.886;2024-02-28T08:25:11;65.43;;;36.77;;
36799;SDS011;22752;51.960;5.886;2024-02-28T08:27:37;67.70;;;38.53;;
36799;SDS011;22752;51.960;5.886;2024-02-28T08:30:03;71.40;;;37.23;;
36799;SDS011;22752;51.960;5.886;2024-02-28T08:32:31;60.40;;;34.77;;
36799;SDS011;22752;51.960;5.886;2024-02-28T08:34:57;63.30;;;35.00;;
36799;SDS011;22752;51.960;5.886;2024-02-28T08:37:23;63.07;;;34.93;;
36799;SDS011;22752;51.960;5.886;2024-02-28T08:39:49;63.40;;;35.07;;
36799;SDS011;22752;51.960;5.886;2024-02-28T08:42:16;56.83;;;33.93;;
36799;SDS011;22752;51.960;5.886;2024-02-28T08:44:41;61.40;;;33.00;;
36799;SDS011;22752;51.960;5.886;2024-02-28T08:47:07;58.03;;;33.53;;
36799;SDS011;22752;51.960;5.886;2024-02-28T08:49:34;55.77;;;32.83;;
36799;SDS011;22752;51.960;5.886;2024-02-28T08:52:01;65.30;;;36.30;;
36799;SDS011;22752;51.960;5.886;2024-02-28T08:54:28;55.47;;;34.07;;
36799;SDS011;22752;51.960;5.886;2024-02-28T08:56:54;62.43;;;35.83;;
36799;SDS011;22752;51.960;5.886;2024-02-28T08:59:20;56.80;;;34.30;;
36799;SDS011;22752;51.960;5.886;2024-02-28T09:01:47;63.67;;;37.17;;
36799;SDS011;22752;51.960;5.886;2024-02-28T09:04:13;58.77;;;34.03;;
36799;SDS011;22752;51.960;5.886;2024-02-28T09:06:38;55.93;;;34.00;;
36799;SDS011;22752;51.960;5.886;2024-02-28T09:09:04;56.63;;;34.27;;
36799;SDS011;22752;51.960;5.886;2024-02-28T09:11:30;59.60;;;35.13;;
36799;SDS011;22752;51.960;5.886;2024-02-28T09:13:55;57.90;;;34.73;;
36799;SDS011;22752;51.960;5.886;2024-02-28T09:16:21;57.33;;;34.57;;
36799;SDS011;22752;51.960;5.886;2024-02-28T09:18:47;53.80;;;33.17;;
36799;SDS011;22752;51.960;5.886;2024-02-28T09:21:15;55.27;;;34.03;;
36799;SDS011;22752;51.960;5.886;2024-02-28T09:23:41;58.63;;;35.67;;
36799;SDS011;22752;51.960;5.886;2024-02-28T09:26:07;66.20;;;37.43;;
36799;SDS011;22752;51.960;5.886;2024-02-28T09:28:33;59.00;;;36.80;;
36799;SDS011;22752;51.960;5.886;2024-02-28T09:30:59;55.10;;;34.20;;
36799;SDS011;22752;51.960;5.886;2024-02-28T09:33:24;59.60;;;34.77;;
36799;SDS011;22752;51.960;5.886;2024-02-28T09:35:50;56.80;;;35.10;;
36799;SDS011;22752;51.960;5.886;2024-02-28T09:38:16;55.60;;;35.77;;
36799;SDS011;22752;51.960;5.886;2024-02-28T09:40:45;56.40;;;34.50;;
36799;SDS011;22752;51.960;5.886;2024-02-28T09:43:15;53.87;;;34.00;;
36799;SDS011;22752;51.960;5.886;2024-02-28T09:45:44;56.08;;;33.33;;
36799;SDS011;22752;51.960;5.886;2024-02-28T09:48:10;50.40;;;32.20;;
36799;SDS011;22752;51.960;5.886;2024-02-28T09:50:37;52.17;;;33.07;;
36799;SDS011;22752;51.960;5.886;2024-02-28T09:53:04;52.23;;;34.13;;
36799;SDS011;22752;51.960;5.886;2024-02-28T09:55:30;57.20;;;35.50;;
36799;SDS011;22752;51.960;5.886;2024-02-28T09:57:55;54.57;;;35.93;;
36799;SDS011;22752;51.960;5.886;2024-02-28T10:00:23;61.23;;;36.83;;
36799;SDS011;22752;51.960;5.886;2024-02-28T10:02:50;61.97;;;35.07;;
36799;SDS011;22752;51.960;5.886;2024-02-28T10:05:17;54.77;;;34.53;;
36799;SDS011;22752;51.960;5.886;2024-02-28T10:07:45;53.53;;;35.70;;
36799;SDS011;22752;51.960;5.886;2024-02-28T10:10:12;61.03;;;37.20;;
36799;SDS011;22752;51.960;5.886;2024-02-28T10:12:44;57.07;;;37.27;;
36799;SDS011;22752;51.960;5.886;2024-02-28T10:15:10;57.27;;;35.50;;
36799;SDS011;22752;51.960;5.886;2024-02-28T10:17:36;51.43;;;35.97;;
36799;SDS011;22752;51.960;5.886;2024-02-28T10:20:01;52.37;;;34.47;;
36799;SDS011;22752;51.960;5.886;2024-02-28T10:22:33;53.67;;;35.17;;
36799;SDS011;22752;51.960;5.886;2024-02-28T10:25:00;53.30;;;36.83;;
36799;SDS011;22752;51.960;5.886;2024-02-28T10:27:26;56.03;;;36.43;;
36799;SDS011;22752;51.960;5.886;2024-02-28T10:29:51;52.03;;;36.63;;
36799;SDS011;22752;51.960;5.886;2024-02-28T10:32:17;57.37;;;37.27;;
36799;SDS011;22752;51.960;5.886;2024-02-28T10:34:43;51.97;;;34.47;;
36799;SDS011;22752;51.960;5.886;2024-02-28T10:37:10;46.63;;;33.17;;
36799;SDS011;22752;51.960;5.886;2024-02-28T10:39:37;45.53;;;32.77;;
36799;SDS011;22752;51.960;5.886;2024-02-28T10:42:03;44.23;;;30.80;;
36799;SDS011;22752;51.960;5.886;2024-02-28T10:44:31;44.67;;;32.03;;
36799;SDS011;22752;51.960;5.886;2024-02-28T10:47:00;43.83;;;32.70;;
36799;SDS011;22752;51.960;5.886;2024-02-28T10:49:27;49.87;;;33.83;;
36799;SDS011;22752;51.960;5.886;2024-02-28T10:51:53;45.20;;;32.63;;
36799;SDS011;22752;51.960;5.886;2024-02-28T10:54:21;49.13;;;34.47;;
36799;SDS011;22752;51.960;5.886;2024-02-28T10:56:50;49.63;;;35.73;;
36799;SDS011;22752;51.960;5.886;2024-02-28T10:59:18;51.10;;;33.40;;
36799;SDS011;22752;51.960;5.886;2024-02-28T11:01:46;46.37;;;34.50;;
36799;SDS011;22752;51.960;5.886;2024-02-28T11:04:12;53.67;;;35.10;;
36799;SDS011;22752;51.960;5.886;2024-02-28T11:06:50;43.93;;;31.50;;
36799;SDS011;22752;51.960;5.886;2024-02-28T11:09:21;45.30;;;31.67;;
36799;SDS011;22752;51.960;5.886;2024-02-28T11:11:51;41.60;;;29.97;;
36799;SDS011;22752;51.960;5.886;2024-02-28T11:14:17;44.73;;;30.67;;
36799;SDS011;22752;51.960;5.886;2024-02-28T11:16:47;49.40;;;33.43;;
36799;SDS011;22752;51.960;5.886;2024-02-28T11:19:24;48.00;;;33.47;;
36799;SDS011;22752;51.960;5.886;2024-02-28T11:21:56;52.07;;;35.10;;
36799;SDS011;22752;51.960;5.886;2024-02-28T11:24:22;44.00;;;32.85;;
36799;SDS011;22752;51.960;5.886;2024-02-28T11:26:50;49.53;;;33.87;;
36799;SDS011;22752;51.960;5.886;2024-02-28T11:29:21;45.27;;;31.03;;
36799;SDS011;22752;51.960;5.886;2024-02-28T11:31:51;45.87;;;33.17;;
36799;SDS011;22752;51.960;5.886;2024-02-28T11:34:17;46.90;;;33.80;;
36799;SDS011;22752;51.960;5.886;2024-02-28T11:36:43;43.27;;;33.03;;
36799;SDS011;22752;51.960;5.886;2024-02-28T11:39:13;48.27;;;32.30;;
36799;SDS011;22752;51.960;5.886;2024-02-28T11:41:38;42.87;;;32.87;;
36799;SDS011;22752;51.960;5.886;2024-02-28T11:44:04;46.63;;;31.80;;
36799;SDS011;22752;51.960;5.886;2024-02-28T11:46:30;47.70;;;33.77;;
36799;SDS011;22752;51.960;5.886;2024-02-28T11:48:57;47.87;;;33.37;;
36799;SDS011;22752;51.960;5.886;2024-02-28T11:51:23;49.93;;;33.60;;
36799;SDS011;22752;51.960;5.886;2024-02-28T11:53:48;50.27;;;36.83;;
36799;SDS011;22752;51.960;5.886;2024-02-28T11:56:14;49.40;;;34.03;;
36799;SDS011;22752;51.960;5.886;2024-02-28T11:59:03;43.67;;;32.57;;
36799;SDS011;22752;51.960;5.886;2024-02-28T12:01:36;51.73;;;35.37;;
36799;SDS011;22752;51.960;5.886;2024-02-28T12:04:08;51.87;;;34.57;;
36799;SDS011;22752;51.960;5.886;2024-02-28T12:06:35;45.07;;;34.13;;
36799;SDS011;22752;51.960;5.886;2024-02-28T12:09:08;47.10;;;35.23;;
36799;SDS011;22752;51.960;5.886;2024-02-28T12:11:36;47.43;;;32.53;;
36799;SDS011;22752;51.960;5.886;2024-02-28T12:14:07;49.10;;;34.03;;
36799;SDS011;22752;51.960;5.886;2024-02-28T12:16:35;50.20;;;34.60;;
36799;SDS011;22752;51.960;5.886;2024-02-28T12:19:08;49.13;;;33.73;;
36799;SDS011;22752;51.960;5.886;2024-02-28T12:21:38;49.83;;;35.17;;
36799;SDS011;22752;51.960;5.886;2024-02-28T12:24:05;46.57;;;33.73;;
36799;SDS011;22752;51.960;5.886;2024-02-28T12:26:34;45.57;;;30.90;;
36799;SDS011;22752;51.960;5.886;2024-02-28T12:28:59;43.10;;;30.83;;
36799;SDS011;22752;51.960;5.886;2024-02-28T12:31:26;39.43;;;28.70;;
36799;SDS011;22752;51.960;5.886;2024-02-28T12:33:52;42.23;;;28.13;;
36799;SDS011;22752;51.960;5.886;2024-02-28T12:36:19;37.53;;;28.53;;
36799;SDS011;22752;51.960;5.886;2024-02-28T12:38:45;36.97;;;26.97;;
36799;SDS011;22752;51.960;5.886;2024-02-28T12:41:10;42.70;;;27.80;;
36799;SDS011;22752;51.960;5.886;2024-02-28T12:43:36;39.17;;;28.33;;
36799;SDS011;22752;51.960;5.886;2024-02-28T12:46:04;39.57;;;27.13;;
36799;SDS011;22752;51.960;5.886;2024-02-28T12:48:30;37.87;;;27.13;;
36799;SDS011;22752;51.960;5.886;2024-02-28T12:50:56;34.03;;;25.67;;
36799;SDS011;22752;51.960;5.886;2024-02-28T12:53:22;40.63;;;28.37;;
36799;SDS011;22752;51.960;5.886;2024-02-28T12:55:49;36.67;;;25.87;;
36799;SDS011;22752;51.960;5.886;2024-02-28T12:58:15;38.97;;;27.90;;
36799;SDS011;22752;51.960;5.886;2024-02-28T13:00:41;38.53;;;25.40;;
36799;SDS011;22752;51.960;5.886;2024-02-28T13:03:07;37.53;;;25.70;;
36799;SDS011;22752;51.960;5.886;2024-02-28T13:05:34;34.07;;;23.77;;
36799;SDS011;22752;51.960;5.886;2024-02-28T13:07:59;39.60;;;27.20;;
36799;SDS011;22752;51.960;5.886;2024-02-28T13:10:25;37.93;;;26.30;;
36799;SDS011;22752;51.960;5.886;2024-02-28T13:12:51;38.00;;;25.83;;
36799;SDS011;22752;51.960;5.886;2024-02-28T13:15:16;43.47;;;26.80;;
36799;SDS011;22752;51.960;5.886;2024-02-28T13:17:42;35.40;;;24.20;;
36799;SDS011;22752;51.960;5.886;2024-02-28T13:20:12;39.20;;;25.47;;
36799;SDS011;22752;51.960;5.886;2024-02-28T13:22:37;42.50;;;28.23;;
36799;SDS011;22752;51.960;5.886;2024-02-28T13:25:03;40.13;;;28.17;;
36799;SDS011;22752;51.960;5.886;2024-02-28T13:27:29;46.10;;;30.63;;
36799;SDS011;22752;51.960;5.886;2024-02-28T13:29:54;42.43;;;28.40;;
36799;SDS011;22752;51.960;5.886;2024-02-28T13:32:20;35.83;;;26.67;;
36799;SDS011;22752;51.960;5.886;2024-02-28T13:34:46;36.23;;;25.47;;
36799;SDS011;22752;51.960;5.886;2024-02-28T13:37:11;36.10;;;24.20;;
36799;SDS011;22752;51.960;5.886;2024-02-28T13:39:39;31.43;;;23.13;;
36799;SDS011;22752;51.960;5.886;2024-02-28T13:42:04;36.53;;;24.83;;
36799;SDS011;22752;51.960;5.886;2024-02-28T13:44:32;33.17;;;24.20;;
36799;SDS011;22752;51.960;5.886;2024-02-28T13:46:59;29.60;;;22.57;;
36799;SDS011;22752;51.960;5.886;2024-02-28T13:49:25;32.37;;;24.03;;
36799;SDS011;22752;51.960;5.886;2024-02-28T13:51:50;32.27;;;22.20;;
36799;SDS011;22752;51.960;5.886;2024-02-28T13:54:17;35.53;;;23.27;;
36799;SDS011;22752;51.960;5.886;2024-02-28T13:56:44;27.63;;;21.10;;
36799;SDS011;22752;51.960;5.886;2024-02-28T13:59:09;33.67;;;24.70;;
36799;SDS011;22752;51.960;5.886;2024-02-28T14:01:35;31.37;;;22.60;;
36799;SDS011;22752;51.960;5.886;2024-02-28T14:04:01;35.97;;;23.30;;
36799;SDS011;22752;51.960;5.886;2024-02-28T14:06:28;31.00;;;22.13;;
36799;SDS011;22752;51.960;5.886;2024-02-28T14:08:54;33.40;;;22.90;;
36799;SDS011;22752;51.960;5.886;2024-02-28T14:11:19;33.17;;;23.03;;
36799;SDS011;22752;51.960;5.886;2024-02-28T14:13:45;31.03;;;22.40;;
36799;SDS011;22752;51.960;5.886;2024-02-28T14:16:11;31.47;;;22.80;;